createdAt,value
2017-09-14T00:02:25.765Z,0.40
2017-09-14T00:04:52.988Z,0.60
2017-09-14T00:07:19.465Z,0.50
2017-09-14T00:09:46.628Z,0.40
2017-09-14T00:12:13.113Z,0.45
2017-09-14T00:14:39.521Z,0.50
2017-09-14T00:17:05.929Z,0.50
2017-09-14T00:19:32.376Z,0.55
2017-09-14T00:21:58.809Z,0.43
2017-09-14T00:24:25.261Z,0.40
2017-09-14T00:26:51.682Z,0.60
2017-09-14T00:29:18.077Z,0.55
2017-09-14T00:31:44.518Z,0.60
2017-09-14T00:34:10.991Z,0.70
2017-09-14T00:36:37.413Z,0.55
2017-09-14T00:39:03.964Z,0.50
2017-09-14T00:41:30.384Z,0.50
2017-09-14T00:43:56.849Z,0.65
2017-09-14T00:46:23.329Z,0.70
2017-09-14T00:48:49.750Z,0.60
2017-09-14T00:51:16.955Z,0.40
2017-09-14T00:53:43.479Z,0.50
2017-09-14T00:56:09.955Z,0.60
2017-09-14T00:58:37.142Z,0.68
2017-09-14T01:01:03.606Z,0.50
2017-09-14T01:03:30.057Z,0.50
2017-09-14T01:05:56.538Z,0.60
2017-09-14T01:08:23.040Z,0.50
2017-09-14T01:10:50.238Z,0.57
2017-09-14T01:13:16.729Z,0.50
2017-09-14T01:15:43.874Z,0.40
2017-09-14T01:18:11.088Z,0.57
2017-09-14T01:20:37.588Z,0.60
2017-09-14T01:23:04.097Z,0.50
2017-09-14T01:25:31.358Z,0.50
2017-09-14T01:27:58.562Z,0.50
2017-09-14T01:30:25.069Z,0.50
2017-09-14T01:32:51.558Z,0.60
2017-09-14T01:35:18.926Z,0.50
2017-09-14T01:37:45.430Z,0.52
2017-09-14T01:40:11.916Z,0.40
2017-09-14T01:42:38.411Z,0.50
2017-09-14T01:45:04.898Z,0.40
2017-09-14T01:47:31.432Z,0.45
2017-09-14T01:49:57.890Z,0.57
2017-09-14T01:52:25.085Z,0.73
2017-09-14T01:54:52.254Z,0.43
2017-09-14T01:57:18.715Z,0.60
2017-09-14T01:59:45.143Z,0.50
2017-09-14T02:02:11.569Z,0.47
2017-09-14T02:04:38.058Z,0.57
2017-09-14T02:07:04.486Z,0.40
2017-09-14T02:09:30.926Z,0.60
2017-09-14T02:11:57.429Z,0.65
2017-09-14T02:14:23.878Z,0.55
2017-09-14T02:16:51.097Z,0.60
2017-09-14T02:19:17.508Z,0.70
2017-09-14T02:21:44.666Z,0.50
2017-09-14T02:24:11.839Z,0.50
2017-09-14T02:26:38.259Z,0.60
2017-09-14T02:29:04.708Z,0.60
2017-09-14T02:31:31.198Z,0.65
2017-09-14T02:33:57.643Z,0.43
2017-09-14T02:36:24.141Z,0.40
2017-09-14T02:38:51.317Z,0.45
2017-09-14T02:41:17.789Z,0.80
2017-09-14T02:43:44.253Z,0.60
2017-09-14T02:46:10.693Z,0.50
2017-09-14T02:48:37.153Z,0.50
2017-09-14T02:51:03.614Z,0.60
2017-09-14T02:53:30.036Z,0.60
2017-09-14T02:55:56.449Z,0.60
2017-09-14T02:58:23.640Z,0.70
2017-09-14T03:00:50.052Z,0.50
2017-09-14T03:03:16.480Z,0.50
2017-09-14T03:05:42.977Z,0.70
2017-09-14T03:08:10.130Z,0.77
2017-09-14T03:10:36.553Z,0.70
2017-09-14T03:13:02.993Z,0.50
2017-09-14T03:15:29.384Z,0.88
2017-09-14T03:17:55.843Z,0.73
2017-09-14T03:20:22.298Z,0.80
2017-09-14T03:22:49.478Z,0.62
2017-09-14T03:25:15.886Z,0.60
2017-09-14T03:27:43.117Z,0.70
2017-09-14T03:30:09.594Z,0.60
2017-09-14T03:32:36.078Z,0.77
2017-09-14T03:35:03.368Z,0.70
2017-09-14T03:37:30.545Z,0.90
2017-09-14T03:39:57.048Z,0.70
2017-09-14T03:42:23.521Z,0.70
2017-09-14T03:44:49.981Z,0.75
2017-09-14T03:47:16.425Z,0.70
2017-09-14T03:49:42.877Z,0.73
2017-09-14T03:52:10.045Z,0.77
2017-09-14T03:54:36.486Z,1.00
2017-09-14T03:57:02.965Z,0.82
2017-09-14T03:59:29.444Z,0.90
2017-09-14T04:01:55.893Z,1.10
2017-09-14T04:04:22.369Z,0.75
2017-09-14T04:06:48.846Z,0.95
2017-09-14T04:09:15.276Z,0.88
2017-09-14T04:11:41.719Z,1.10
2017-09-14T04:14:08.162Z,0.93
2017-09-14T04:16:34.597Z,0.80
2017-09-14T04:19:01.032Z,0.85
2017-09-14T04:21:27.425Z,0.80
2017-09-14T04:23:53.854Z,1.02
2017-09-14T04:26:21.034Z,0.93
2017-09-14T04:28:47.465Z,0.95
2017-09-14T04:31:13.914Z,1.00
2017-09-14T04:33:40.354Z,1.00
2017-09-14T04:36:06.834Z,1.00
2017-09-14T04:38:33.276Z,0.95
2017-09-14T04:40:59.733Z,0.93
2017-09-14T04:43:26.170Z,0.90
2017-09-14T04:45:52.574Z,1.17
2017-09-14T04:48:19.781Z,1.20
2017-09-14T04:50:46.189Z,0.95
2017-09-14T04:53:12.610Z,1.10
2017-09-14T04:55:39.054Z,1.30
2017-09-14T04:58:05.482Z,1.00
2017-09-14T05:00:31.965Z,1.00
2017-09-14T05:02:58.437Z,1.20
2017-09-14T05:05:24.830Z,1.20
2017-09-14T05:07:51.334Z,1.33
2017-09-14T05:10:17.798Z,1.00
2017-09-14T05:12:44.258Z,1.20
2017-09-14T05:15:10.680Z,1.02
2017-09-14T05:17:37.699Z,1.30
2017-09-14T05:20:04.635Z,0.90
2017-09-14T05:22:31.193Z,1.10
2017-09-14T05:24:57.696Z,1.52
2017-09-14T05:27:24.158Z,1.23
2017-09-14T05:29:50.600Z,1.35
2017-09-14T05:32:17.062Z,1.75
2017-09-14T05:34:43.558Z,1.55
2017-09-14T05:37:09.981Z,1.40
2017-09-14T05:39:36.420Z,4.15
2017-09-14T05:42:02.853Z,4.85
2017-09-14T05:44:29.299Z,7.90
2017-09-14T05:46:56.541Z,3.37
2017-09-14T05:49:22.991Z,2.22
2017-09-14T05:51:49.437Z,1.48
2017-09-14T05:54:15.845Z,2.85
2017-09-14T05:56:42.402Z,2.60
2017-09-14T05:59:08.821Z,2.10
2017-09-14T06:01:35.973Z,1.40
2017-09-14T06:04:02.445Z,1.73
2017-09-14T06:06:28.853Z,1.98
2017-09-14T06:08:55.319Z,1.30
2017-09-14T06:11:21.775Z,1.52
2017-09-14T06:13:48.289Z,1.52
2017-09-14T06:16:14.728Z,2.42
2017-09-14T06:18:41.134Z,1.20
2017-09-14T06:21:07.624Z,1.00
2017-09-14T06:23:34.144Z,1.30
2017-09-14T06:26:00.601Z,1.37
2017-09-14T06:28:27.753Z,1.20
2017-09-14T06:30:54.925Z,1.10
2017-09-14T06:33:21.383Z,0.60
2017-09-14T06:35:47.837Z,0.62
2017-09-14T06:38:15.073Z,0.30
2017-09-14T06:40:41.518Z,0.40
2017-09-14T06:43:07.977Z,0.50
2017-09-14T06:45:35.182Z,0.47
2017-09-14T06:48:01.613Z,0.55
2017-09-14T06:50:28.152Z,0.30
2017-09-14T06:52:54.626Z,0.30
2017-09-14T06:55:21.053Z,0.40
2017-09-14T06:57:48.266Z,0.30
2017-09-14T07:00:14.674Z,0.30
2017-09-14T07:02:41.163Z,0.30
2017-09-14T07:05:08.341Z,0.20
2017-09-14T07:07:35.514Z,0.40
2017-09-14T07:10:01.998Z,0.50
2017-09-14T07:12:29.217Z,0.50
2017-09-14T07:14:55.660Z,0.40
2017-09-14T07:17:22.090Z,0.40
2017-09-14T07:19:48.533Z,0.30
2017-09-14T07:22:15.017Z,0.30
2017-09-14T07:24:42.173Z,0.37
2017-09-14T07:27:08.625Z,0.25
2017-09-14T07:29:35.102Z,0.37
2017-09-14T07:32:02.290Z,0.30
2017-09-14T07:34:28.744Z,0.40
2017-09-14T07:36:55.167Z,0.50
2017-09-14T07:39:21.630Z,0.37
2017-09-14T07:41:48.062Z,0.50
2017-09-14T07:44:14.517Z,0.40
2017-09-14T07:46:41.731Z,0.68
2017-09-14T07:49:08.182Z,0.43
2017-09-14T07:51:34.685Z,0.30
2017-09-14T07:54:01.089Z,0.50
2017-09-14T07:56:28.262Z,0.30
2017-09-14T07:58:54.702Z,0.40
2017-09-14T08:01:21.188Z,0.50
2017-09-14T08:03:47.660Z,0.43
2017-09-14T08:06:14.133Z,0.43
2017-09-14T08:08:41.417Z,0.40
2017-09-14T08:11:07.887Z,0.50
2017-09-14T08:13:34.442Z,0.50
2017-09-14T08:16:00.865Z,0.60
2017-09-14T08:18:27.291Z,0.50
2017-09-14T08:20:53.809Z,0.57
2017-09-14T08:23:20.337Z,0.50
2017-09-14T08:25:46.769Z,0.70
2017-09-14T08:28:13.318Z,0.50
2017-09-14T08:30:39.726Z,0.60
2017-09-14T08:33:06.881Z,0.55
2017-09-14T08:35:33.341Z,0.62
2017-09-14T08:37:59.750Z,0.65
2017-09-14T08:40:26.209Z,0.40
2017-09-14T08:42:52.659Z,0.50
2017-09-14T08:45:19.174Z,0.43
2017-09-14T08:47:45.575Z,0.50
2017-09-14T08:50:12.032Z,0.52
2017-09-14T08:52:38.526Z,0.50
2017-09-14T08:55:05.760Z,0.57
2017-09-14T08:57:32.301Z,0.43
2017-09-14T08:59:58.712Z,0.40
2017-09-14T09:02:25.222Z,0.50
2017-09-14T09:04:51.674Z,0.47
2017-09-14T09:07:18.078Z,0.40
2017-09-14T09:09:45.257Z,0.55
2017-09-14T09:12:11.712Z,0.40
2017-09-14T09:14:38.297Z,0.50
2017-09-14T09:17:04.731Z,0.60
2017-09-14T09:19:31.138Z,0.40
2017-09-14T09:21:57.574Z,0.60
2017-09-14T09:24:24.062Z,0.50
2017-09-14T09:26:50.494Z,0.50
2017-09-14T09:29:17.764Z,0.52
2017-09-14T09:31:44.269Z,0.52
2017-09-14T09:34:10.743Z,0.40
2017-09-14T09:36:37.201Z,0.40
2017-09-14T09:39:04.350Z,0.40
2017-09-14T09:41:30.805Z,0.50
2017-09-14T09:43:57.274Z,0.50
2017-09-14T09:46:23.809Z,0.60
2017-09-14T09:48:50.234Z,0.65
2017-09-14T09:51:16.674Z,0.50
2017-09-14T09:53:43.133Z,0.65
2017-09-14T09:56:09.562Z,0.50
2017-09-14T09:58:35.957Z,0.50
2017-09-14T10:01:02.413Z,0.50
2017-09-14T10:03:28.861Z,0.50
2017-09-14T10:05:55.296Z,0.40
2017-09-14T10:08:22.465Z,0.52
2017-09-14T10:10:49.665Z,0.43
2017-09-14T10:13:16.110Z,0.55
2017-09-14T10:15:42.586Z,0.40
2017-09-14T10:18:09.774Z,0.32
2017-09-14T10:20:36.230Z,0.43
2017-09-14T10:23:03.501Z,0.82
2017-09-14T10:25:29.947Z,0.40
2017-09-14T10:27:56.359Z,0.50
2017-09-14T10:30:22.791Z,0.45
2017-09-14T10:32:49.991Z,0.47
2017-09-14T10:35:16.429Z,0.82
2017-09-14T10:37:42.902Z,0.30
2017-09-14T10:40:10.135Z,0.37
2017-09-14T10:42:36.626Z,0.40
2017-09-14T10:45:03.814Z,0.45
2017-09-14T10:47:30.262Z,0.30
2017-09-14T10:49:56.729Z,0.30
2017-09-14T10:52:23.177Z,0.40
2017-09-14T10:54:50.353Z,0.55
2017-09-14T10:57:16.792Z,0.30
2017-09-14T10:59:43.200Z,0.40
2017-09-14T11:02:09.693Z,0.50
2017-09-14T11:04:36.115Z,0.50
2017-09-14T11:07:02.531Z,0.30
2017-09-14T11:09:29.034Z,0.37
2017-09-14T11:11:56.209Z,0.30
2017-09-14T11:14:22.635Z,0.30
2017-09-14T11:16:49.101Z,0.37
2017-09-14T11:19:15.518Z,0.35
2017-09-14T11:21:41.950Z,0.40
2017-09-14T11:24:08.397Z,0.55
2017-09-14T11:26:34.900Z,0.50
2017-09-14T11:29:01.297Z,0.50
2017-09-14T11:31:27.739Z,0.70
2017-09-14T11:33:54.196Z,0.50
2017-09-14T11:36:20.613Z,0.68
2017-09-14T11:38:47.066Z,0.40
2017-09-14T11:41:13.490Z,1.10
2017-09-14T11:43:39.976Z,0.70
2017-09-14T11:46:06.460Z,0.45
2017-09-14T11:48:32.901Z,0.75
2017-09-14T11:50:59.380Z,0.50
2017-09-14T11:53:26.617Z,0.70
2017-09-14T11:55:53.062Z,1.20
2017-09-14T11:58:19.523Z,2.80
2017-09-14T12:00:46.071Z,2.42
2017-09-14T12:03:13.226Z,1.05
2017-09-14T12:05:39.677Z,0.90
2017-09-14T12:08:06.165Z,0.80
2017-09-14T12:10:33.353Z,0.30
2017-09-14T12:12:59.835Z,0.45
2017-09-14T12:15:26.256Z,0.40
2017-09-14T12:17:53.451Z,0.77
2017-09-14T12:20:19.923Z,0.50
2017-09-14T12:22:46.371Z,0.70
2017-09-14T12:25:12.854Z,0.80
2017-09-14T12:27:39.365Z,0.40
2017-09-14T12:30:05.811Z,0.40
2017-09-14T12:32:32.261Z,1.20
2017-09-14T12:34:58.716Z,1.75
2017-09-14T12:37:25.188Z,1.00
2017-09-14T12:39:51.610Z,0.82
2017-09-14T12:42:18.854Z,2.30
2017-09-14T12:44:46.082Z,1.80
2017-09-14T12:47:12.543Z,2.25
2017-09-14T12:49:38.969Z,0.80
2017-09-14T12:52:05.374Z,2.87
2017-09-14T12:54:31.883Z,2.58
2017-09-14T12:56:58.354Z,6.30
2017-09-14T12:59:24.880Z,4.55
2017-09-14T13:01:51.348Z,4.80
2017-09-14T13:04:18.553Z,1.15
2017-09-14T13:06:45.047Z,0.68
2017-09-14T13:09:11.529Z,0.70
2017-09-14T13:11:37.999Z,0.50
2017-09-14T13:14:04.573Z,0.77
2017-09-14T13:16:31.047Z,0.40
2017-09-14T13:18:57.536Z,0.50
2017-09-14T13:21:24.720Z,0.45
2017-09-14T13:23:51.187Z,0.60
2017-09-14T13:26:18.403Z,0.60
2017-09-14T13:28:44.856Z,0.50
2017-09-14T13:31:11.284Z,0.62
2017-09-14T13:33:37.793Z,0.50
2017-09-14T13:36:04.243Z,0.60
2017-09-14T13:38:30.675Z,0.40
2017-09-14T13:40:57.157Z,0.50
2017-09-14T13:43:23.600Z,0.40
2017-09-14T13:45:50.766Z,0.50
2017-09-14T13:48:17.213Z,0.52
2017-09-14T13:50:43.638Z,0.40
2017-09-14T13:53:10.037Z,0.70
2017-09-14T13:55:36.480Z,0.43
2017-09-14T13:58:03.000Z,1.00
2017-09-14T14:00:29.462Z,0.50
2017-09-14T14:02:55.938Z,0.50
2017-09-14T14:05:22.425Z,0.80
2017-09-14T14:07:48.918Z,0.80
2017-09-14T14:10:15.379Z,0.73
2017-09-14T14:12:42.603Z,0.70
2017-09-14T14:15:09.060Z,0.60
2017-09-14T14:17:36.261Z,0.65
2017-09-14T14:20:02.751Z,0.60
2017-09-14T14:22:29.233Z,0.62
2017-09-14T14:24:55.670Z,0.80
2017-09-14T14:27:22.256Z,0.68
2017-09-14T14:29:49.425Z,0.73
2017-09-14T14:32:15.902Z,0.90
2017-09-14T14:34:42.344Z,0.60
2017-09-14T14:37:08.873Z,0.68
2017-09-14T14:39:35.305Z,0.70
2017-09-14T14:42:03.289Z,0.80
2017-09-14T14:44:29.719Z,0.68
2017-09-14T14:46:56.197Z,0.60
2017-09-14T14:49:22.663Z,1.12
2017-09-14T14:51:49.113Z,1.00
2017-09-14T14:54:15.542Z,0.77
2017-09-14T14:56:42.054Z,0.77
2017-09-14T14:59:08.501Z,0.50
2017-09-14T15:01:35.726Z,0.80
2017-09-14T15:04:02.154Z,0.68
2017-09-14T15:06:28.626Z,0.55
2017-09-14T15:08:55.097Z,0.50
2017-09-14T15:11:22.297Z,0.52
2017-09-14T15:13:48.729Z,1.10
2017-09-14T15:16:15.185Z,0.80
2017-09-14T15:18:41.732Z,1.20
2017-09-14T15:21:08.950Z,1.00
2017-09-14T15:23:35.498Z,0.60
2017-09-14T15:26:01.973Z,0.50
2017-09-14T15:28:28.510Z,0.40
2017-09-14T15:30:55.026Z,0.70
2017-09-14T15:33:22.289Z,0.50
2017-09-14T15:35:49.464Z,0.55
2017-09-14T15:38:15.914Z,0.57
2017-09-14T15:40:48.422Z,1.00
2017-09-14T15:43:20.936Z,0.60
2017-09-14T15:45:47.430Z,0.50
2017-09-14T15:48:19.861Z,0.65
2017-09-14T15:50:52.371Z,0.60
2017-09-14T15:53:18.805Z,0.57
2017-09-14T15:55:45.214Z,0.60
2017-09-14T15:58:11.683Z,0.50
2017-09-14T16:00:38.155Z,0.50
2017-09-14T16:03:04.635Z,0.43
2017-09-14T16:05:31.132Z,0.60
2017-09-14T16:07:57.560Z,0.73
2017-09-14T16:10:24.030Z,0.80
2017-09-14T16:12:50.477Z,0.60
2017-09-14T16:15:17.622Z,0.70
2017-09-14T16:17:44.117Z,0.52
2017-09-14T16:20:10.605Z,0.45
2017-09-14T16:22:37.113Z,0.60
2017-09-14T16:25:03.561Z,1.20
2017-09-14T16:27:30.044Z,0.77
2017-09-14T16:29:56.489Z,0.88
2017-09-14T16:32:23.025Z,1.00
2017-09-14T16:34:50.493Z,1.12
2017-09-14T16:37:16.979Z,1.90
2017-09-14T16:39:43.433Z,1.00
2017-09-14T16:42:09.896Z,2.33
2017-09-14T16:44:36.366Z,0.70
2017-09-14T16:47:03.541Z,1.20
2017-09-14T16:49:30.727Z,1.15
2017-09-14T16:51:57.176Z,0.70
2017-09-14T16:54:23.642Z,1.08
2017-09-14T16:56:50.809Z,0.70
2017-09-14T16:59:18.030Z,0.85
2017-09-14T17:01:44.450Z,0.82
2017-09-14T17:04:10.873Z,1.10
2017-09-14T17:06:37.337Z,1.20
2017-09-14T17:09:03.838Z,1.00
2017-09-14T17:11:30.291Z,1.33
2017-09-14T17:13:56.746Z,1.37
2017-09-14T17:16:23.947Z,1.92
2017-09-14T17:18:50.390Z,4.47
2017-09-14T17:21:17.373Z,2.65
2017-09-14T17:23:44.565Z,5.07
2017-09-14T17:26:11.043Z,8.35
2017-09-14T17:28:37.609Z,1.48
2017-09-14T17:31:04.851Z,1.80
2017-09-14T17:33:32.030Z,2.95
2017-09-14T17:35:58.525Z,1.70
2017-09-14T17:38:25.723Z,1.40
2017-09-14T17:40:52.158Z,1.55
2017-09-14T17:43:18.630Z,1.40
2017-09-14T17:45:45.893Z,0.93
2017-09-14T17:48:12.380Z,1.00
2017-09-14T17:50:38.842Z,0.90
2017-09-14T17:53:05.298Z,0.90
2017-09-14T17:55:32.564Z,1.50
2017-09-14T17:57:59.064Z,1.90
2017-09-14T18:00:25.541Z,2.00
2017-09-14T18:02:52.011Z,1.60
2017-09-14T18:05:18.507Z,1.00
2017-09-14T18:07:44.958Z,1.20
2017-09-14T18:10:11.525Z,1.00
2017-09-14T18:12:38.018Z,1.30
2017-09-14T18:15:04.458Z,1.30
2017-09-14T18:17:31.017Z,1.20
2017-09-14T18:19:57.498Z,1.20
2017-09-14T18:22:24.667Z,1.10
2017-09-14T18:24:51.121Z,0.82
2017-09-14T18:27:17.582Z,1.37
2017-09-14T18:29:44.082Z,1.05
2017-09-14T18:32:10.566Z,1.10
2017-09-14T18:34:37.057Z,1.50
2017-09-14T18:37:03.572Z,1.83
2017-09-14T18:39:30.001Z,0.90
2017-09-14T18:41:56.436Z,1.20
2017-09-14T18:44:22.893Z,1.60
2017-09-14T18:46:49.307Z,1.25
2017-09-14T18:49:15.819Z,0.85
2017-09-14T18:51:42.313Z,1.00
2017-09-14T18:54:08.739Z,0.98
2017-09-14T18:56:35.956Z,1.12
2017-09-14T18:59:02.460Z,1.27
2017-09-14T19:01:29.641Z,0.90
2017-09-14T19:03:56.097Z,2.10
2017-09-14T19:06:22.567Z,3.62
2017-09-14T19:08:48.997Z,2.17
2017-09-14T19:11:16.244Z,1.33
2017-09-14T19:13:43.493Z,2.08
2017-09-14T19:16:10.698Z,1.50
2017-09-14T19:18:37.166Z,1.45
2017-09-14T19:21:04.366Z,1.60
2017-09-14T19:23:31.529Z,1.85
2017-09-14T19:25:58.043Z,1.60
2017-09-14T19:28:24.519Z,1.50
2017-09-14T19:30:50.985Z,1.40
2017-09-14T19:33:17.457Z,1.80
2017-09-14T19:35:43.895Z,3.50
2017-09-14T19:38:10.398Z,2.83
2017-09-14T19:40:37.618Z,1.70
2017-09-14T19:43:04.082Z,1.70
2017-09-14T19:45:30.602Z,1.30
2017-09-14T19:47:57.030Z,1.90
2017-09-14T19:50:23.479Z,1.60
2017-09-14T19:52:49.974Z,1.55
2017-09-14T19:55:16.465Z,0.88
2017-09-14T19:57:43.627Z,1.00
2017-09-14T20:00:10.086Z,1.00
2017-09-14T20:02:36.569Z,0.93
2017-09-14T20:05:03.058Z,0.90
2017-09-14T20:07:29.508Z,0.88
2017-09-14T20:09:55.963Z,0.70
2017-09-14T20:12:22.396Z,0.75
2017-09-14T20:14:48.862Z,0.90
2017-09-14T20:17:15.314Z,1.08
2017-09-14T20:19:41.755Z,0.70
2017-09-14T20:22:08.258Z,0.90
2017-09-14T20:24:34.754Z,1.10
2017-09-14T20:27:01.243Z,1.00
2017-09-14T20:29:27.746Z,1.08
2017-09-14T20:31:54.253Z,0.70
2017-09-14T20:34:20.682Z,0.98
2017-09-14T20:36:47.891Z,0.85
2017-09-14T20:39:14.451Z,1.00
2017-09-14T20:41:40.916Z,0.90
2017-09-14T20:44:07.338Z,2.37
2017-09-14T20:46:34.570Z,1.00
2017-09-14T20:49:00.994Z,0.90
2017-09-14T20:51:27.470Z,1.40
2017-09-14T20:53:53.910Z,3.30
2017-09-14T20:56:20.373Z,7.82
2017-09-14T20:58:46.828Z,1.70
2017-09-14T21:01:13.356Z,0.98
2017-09-14T21:03:39.810Z,1.00
2017-09-14T21:06:06.273Z,0.90
2017-09-14T21:08:32.690Z,1.30
2017-09-14T21:10:59.161Z,1.25
2017-09-14T21:13:25.736Z,1.08
2017-09-14T21:15:52.242Z,1.27
2017-09-14T21:18:18.662Z,1.02
2017-09-14T21:20:45.207Z,0.95
2017-09-14T21:23:11.741Z,0.90
2017-09-14T21:25:38.168Z,0.90
2017-09-14T21:28:04.618Z,1.25
2017-09-14T21:30:31.055Z,1.00
2017-09-14T21:32:57.490Z,1.10
2017-09-14T21:35:23.975Z,1.02
2017-09-14T21:37:50.405Z,1.15
2017-09-14T21:40:17.661Z,1.10
2017-09-14T21:42:44.113Z,1.25
2017-09-14T21:45:11.301Z,1.17
2017-09-14T21:47:37.698Z,1.17
2017-09-14T21:50:04.153Z,1.30
2017-09-14T21:52:30.606Z,0.95
2017-09-14T21:54:57.097Z,0.98
2017-09-14T21:57:24.238Z,1.35
2017-09-14T21:59:51.437Z,1.10
2017-09-14T22:02:17.887Z,1.33
2017-09-14T22:04:45.030Z,1.25
2017-09-14T22:07:11.517Z,1.00
2017-09-14T22:09:37.942Z,0.90
2017-09-14T22:12:04.479Z,1.20
2017-09-14T22:14:31.689Z,1.12
2017-09-14T22:16:58.131Z,1.40
2017-09-14T22:19:24.569Z,0.98
2017-09-14T22:21:50.986Z,1.30
2017-09-14T22:24:17.506Z,1.12
2017-09-14T22:26:43.958Z,1.25
2017-09-14T22:29:10.372Z,1.00
2017-09-14T22:31:36.885Z,1.23
2017-09-14T22:34:04.107Z,1.10
2017-09-14T22:36:30.562Z,1.50
2017-09-14T22:38:57.002Z,0.98
2017-09-14T22:41:23.444Z,1.15
2017-09-14T22:43:49.851Z,0.90
2017-09-14T22:46:17.046Z,0.85
2017-09-14T22:48:43.457Z,1.15
2017-09-14T22:51:09.915Z,0.98
2017-09-14T22:53:36.390Z,0.90
2017-09-14T22:56:03.529Z,0.70
2017-09-14T22:58:30.752Z,1.02
2017-09-14T23:00:57.193Z,1.00
2017-09-14T23:03:24.416Z,1.10
2017-09-14T23:05:50.867Z,1.23
2017-09-14T23:08:17.314Z,1.25
2017-09-14T23:10:43.797Z,1.00
2017-09-14T23:13:10.252Z,1.35
2017-09-14T23:15:36.741Z,1.30
2017-09-14T23:18:03.926Z,1.20
2017-09-14T23:20:30.341Z,1.02
2017-09-14T23:22:57.535Z,1.15
2017-09-14T23:25:23.950Z,1.15
2017-09-14T23:27:50.470Z,1.10
2017-09-14T23:30:16.898Z,1.37
2017-09-14T23:32:43.314Z,1.37
2017-09-14T23:35:10.502Z,1.10
2017-09-14T23:37:36.951Z,1.08
2017-09-14T23:40:03.376Z,1.20
2017-09-14T23:42:29.802Z,1.00
2017-09-14T23:44:56.249Z,1.60
2017-09-14T23:47:22.655Z,1.40
2017-09-14T23:49:49.069Z,1.42
2017-09-14T23:52:15.521Z,1.20
2017-09-14T23:54:41.957Z,1.40
2017-09-14T23:57:08.387Z,1.10
2017-09-14T23:59:34.904Z,1.00
